Time;durP1;ratioP1;P1;durP2;ratioP2;P2;SDS_P1;SDS_P2;PMS_P1;PMS_P2;Temp;Humidity;BMP_temperature;BMP_pressure;BME280_temperature;BME280_humidity;BME280_pressure;Samples;Min_cycle;Max_cycle;Signal;HPM_P1;HPM_P2
2021/12/01 00:00:32;;;;;;;10.53;1.57;;;;;;;8.95;79.29;98922.70;1919553;75;21531;-57
2021/12/01 00:03:01;;;;;;;6.62;1.32;;;;;;;9.05;78.90;98935.63;1918066;75;21058;-55
2021/12/01 00:05:33;;;;;;;7.62;1.22;;;;;;;9.12;78.83;98937.41;1918067;75;21430;-55
2021/12/01 00:08:03;;;;;;;4.78;1.02;;;;;;;9.16;78.80;98986.16;1919341;75;21100;-57
2021/12/01 00:10:34;;;;;;;4.50;0.85;;;;;;;9.16;78.80;98995.36;1908467;75;21064;-56
2021/12/01 00:13:04;;;;;;;2.00;0.78;;;;;;;9.12;78.27;99029.31;1851656;76;21128;-60
2021/12/01 00:15:33;;;;;;;4.90;0.93;;;;;;;9.05;78.06;99046.36;1841977;78;21026;-55
2021/12/01 00:18:03;;;;;;;12.13;1.82;;;;;;;8.91;78.10;99073.45;1842062;78;21090;-55
2021/12/01 00:20:32;;;;;;;8.65;1.92;;;;;;;8.69;77.54;99121.92;1841799;78;21137;-55
2021/12/01 00:23:01;;;;;;;6.55;2.20;;;;;;;8.37;76.52;99140.73;1841861;78;21054;-54
2021/12/01 01:02:26;;;;;;;0.47;0.47;;;;;;;5.63;75.02;99614.38;1952881;72;28539;-55
2021/12/01 01:04:55;;;;;;;0.70;0.50;;;;;;;5.55;74.84;99641.61;1888552;75;21047;-57
2021/12/01 01:07:24;;;;;;;1.15;0.40;;;;;;;5.51;74.92;99661.34;1908391;75;21093;-57
2021/12/01 01:09:53;;;;;;;2.00;0.60;;;;;;;5.38;74.98;99678.73;1894019;75;21172;-57
2021/12/01 01:18:08;;;;;;;0.60;0.60;;;;;;;5.17;75.08;99753.86;1849608;74;21043;-55
2021/12/01 01:20:37;;;;;;;0.78;0.78;;;;;;;5.11;75.28;99773.61;1917976;75;21106;-57
2021/12/01 01:23:05;;;;;;;0.88;0.65;;;;;;;5.05;75.46;99784.25;1879823;76;21089;-57
2021/12/01 01:25:34;;;;;;;1.92;0.90;;;;;;;5.02;75.55;99801.72;1880346;75;21002;-60
2021/12/01 01:28:04;;;;;;;1.95;0.98;;;;;;;5.01;75.57;99812.19;1917238;75;21114;-57
2021/12/01 01:30:33;;;;;;;1.10;0.55;;;;;;;4.95;75.56;99829.35;1919171;75;21105;-57
2021/12/01 01:33:01;;;;;;;0.88;0.55;;;;;;;4.91;75.57;99852.53;1886817;75;21477;-60
2021/12/01 01:35:31;;;;;;;1.52;0.90;;;;;;;4.88;75.46;99850.84;1886818;76;21047;-55
2021/12/01 01:38:00;;;;;;;1.10;0.85;;;;;;;4.84;75.46;99890.97;1890402;75;21477;-55
2021/12/01 01:40:31;;;;;;;1.22;0.78;;;;;;;4.86;75.67;99897.45;1888518;75;21447;-56
2021/12/01 01:43:00;;;;;;;1.67;0.88;;;;;;;4.85;75.72;99916.17;1887592;75;21048;-58
2021/12/01 01:45:29;;;;;;;1.47;1.02;;;;;;;4.82;75.78;99934.05;1887529;75;21522;-59
2021/12/01 01:50:38;;;;;;;;;;;;;;;4.82;75.79;99964.50;1853827;77;21070;-58
2021/12/01 01:53:10;;;;;;;0.60;0.60;;;;;;;4.81;75.83;99965.38;1859409;77;20199;-58
2021/12/01 01:55:44;;;;;;;2.20;1.10;;;;;;;4.78;75.84;99962.42;1919359;75;21003;-58
2021/12/01 01:58:14;;;;;;;;;;;;;;;4.80;75.88;99979.34;1881691;75;21026;-59
2021/12/01 02:01:06;;;;;;;2.08;0.70;;;;;;;4.83;75.93;99985.75;1874341;76;20105;-59
2021/12/01 02:03:25;;;;;;;2.12;1.42;;;;;;;4.79;75.92;99985.44;1925504;74;21135;-58
2021/12/01 02:05:56;;;;;;;1.05;0.70;;;;;;;4.79;75.98;99998.48;1925324;74;21031;-59
2021/12/01 02:08:31;;;;;;;1.30;0.72;;;;;;;4.81;75.96;100009.30;1919412;74;21128;-59
2021/12/01 02:11:02;;;;;;;1.92;1.17;;;;;;;4.82;75.88;100012.30;1926820;73;21031;-60
2021/12/01 02:13:31;;;;;;;2.00;0.90;;;;;;;4.83;75.77;100037.92;1895433;76;21471;-60
2021/12/01 02:16:00;;;;;;;2.95;0.90;;;;;;;4.85;75.81;100042.68;1895819;74;21475;-58
2021/12/01 02:18:29;;;;;;;2.10;0.80;;;;;;;4.83;75.77;100048.36;1895345;76;21479;-59
2021/12/01 02:21:04;;;;;;;1.15;0.75;;;;;;;4.83;75.88;100060.09;1895578;76;21198;-58
2021/12/01 02:23:34;;;;;;;1.20;0.80;;;;;;;4.82;75.92;100073.59;1921288;74;21469;-57
2021/12/01 02:26:04;;;;;;;0.93;0.82;;;;;;;4.83;75.90;100092.70;1928859;74;21027;-59
2021/12/01 02:28:34;;;;;;;2.37;1.05;;;;;;;4.84;75.93;100106.17;1897361;74;21033;-59
2021/12/01 02:31:03;;;;;;;2.62;1.20;;;;;;;4.83;75.78;100114.45;1895315;76;21444;-59
2021/12/01 02:33:32;;;;;;;1.87;1.07;;;;;;;4.82;75.92;100126.22;1919357;73;21646;-59
2021/12/01 02:36:02;;;;;;;2.05;1.27;;;;;;;4.83;75.88;100133.13;1922054;74;21457;-59
2021/12/01 02:38:32;;;;;;;1.72;1.00;;;;;;;4.85;75.86;100136.59;1895484;76;21062;-58
2021/12/01 02:41:00;;;;;;;2.27;1.02;;;;;;;4.84;75.92;100158.34;1895686;74;21050;-57
2021/12/01 02:43:30;;;;;;;1.60;1.00;;;;;;;4.85;75.90;100161.38;1905785;74;21035;-58
2021/12/01 02:45:59;;;;;;;2.30;1.12;;;;;;;4.88;75.97;100171.70;1924199;74;21117;-57
2021/12/01 02:48:29;;;;;;;1.32;0.80;;;;;;;4.91;75.98;100176.86;1905708;74;21819;-59
2021/12/01 02:50:58;;;;;;;1.45;0.95;;;;;;;4.92;75.99;100182.92;1919039;74;21027;-60
2021/12/01 02:53:27;;;;;;;2.85;1.00;;;;;;;4.90;75.97;100192.09;1928718;74;21090;-59
2021/12/01 02:55:59;;;;;;;2.70;1.55;;;;;;;4.89;75.98;100203.86;1922927;74;21546;-60
2021/12/01 02:58:38;;;;;;;3.25;1.90;;;;;;;4.89;76.01;100213.87;1897315;74;21067;-60
2021/12/01 03:01:03;;;;;;;2.98;1.52;;;;;;;4.87;76.02;100227.83;1926824;73;21047;-59
2021/12/01 03:03:32;;;;;;;3.80;1.42;;;;;;;4.84;76.01;100223.55;1928726;74;21074;-60
2021/12/01 03:06:03;;;;;;;3.10;1.52;;;;;;;4.74;75.90;100224.23;1926428;74;21464;-60
2021/12/01 03:08:31;;;;;;;5.10;2.33;;;;;;;4.71;75.87;100231.27;1928736;74;21003;-60
2021/12/01 03:11:01;;;;;;;8.15;2.90;;;;;;;4.67;75.85;100238.30;1919473;74;21118;-61
2021/12/01 03:13:30;;;;;;;7.47;2.62;;;;;;;4.64;75.81;100227.47;1895398;75;21079;-61
2021/12/01 03:15:59;;;;;;;6.00;3.00;;;;;;;4.63;75.87;100236.20;1901236;74;21151;-61
2021/12/01 03:18:29;;;;;;;6.67;3.58;;;;;;;4.65;75.87;100238.78;1926900;74;21050;-61
2021/12/01 03:20:58;;;;;;;7.00;3.55;;;;;;;4.64;75.94;100242.27;1923968;74;21526;-60
2021/12/01 03:23:28;;;;;;;7.00;3.22;;;;;;;4.67;75.93;100247.84;1928890;74;21088;-60
2021/12/01 03:25:56;;;;;;;7.72;3.37;;;;;;;4.69;75.83;100250.00;1928869;74;21027;-60
2021/12/01 03:28:25;;;;;;;10.38;4.03;;;;;;;4.73;75.76;100263.38;1928753;74;21474;-60
2021/12/01 03:30:54;;;;;;;7.60;3.85;;;;;;;4.73;75.78;100264.69;1928790;74;21085;-60
2021/12/01 03:33:24;;;;;;;8.48;4.10;;;;;;;4.74;75.83;100263.34;1928733;73;21019;-61
2021/12/01 03:35:54;;;;;;;6.92;3.87;;;;;;;4.77;75.84;100273.69;1926368;74;21503;-61
2021/12/01 03:38:27;;;;;;;7.87;3.62;;;;;;;4.80;75.80;100277.55;1928724;74;21085;-61
2021/12/01 03:40:58;;;;;;;6.00;3.60;;;;;;;4.80;75.69;100282.77;1929021;74;21039;-60
2021/12/01 03:43:27;;;;;;;7.80;3.47;;;;;;;4.80;75.76;100294.95;1928662;74;21100;-60
2021/12/01 03:45:56;;;;;;;6.55;3.62;;;;;;;4.81;75.60;100301.45;1926321;74;21101;-60
2021/12/01 03:48:26;;;;;;;7.60;4.05;;;;;;;4.83;75.59;100306.18;1896286;74;21410;-60
2021/12/01 03:50:55;;;;;;;7.80;4.00;;;;;;;4.85;75.65;100307.45;1895415;76;21429;-60
2021/12/01 03:53:25;;;;;;;8.20;3.92;;;;;;;4.87;75.61;100330.45;1895437;76;21063;-60
2021/12/01 03:55:54;;;;;;;6.80;3.45;;;;;;;4.88;75.42;100330.84;1875821;76;21038;-61
2021/12/01 03:58:22;;;;;;;6.45;3.40;;;;;;;4.93;75.31;100343.80;1897660;74;20995;-61
2021/12/01 04:00:52;;;;;;;8.43;3.65;;;;;;;4.93;75.13;100345.95;1895419;76;21133;-60
2021/12/01 04:03:21;;;;;;;7.70;3.70;;;;;;;4.94;75.07;100350.30;1884909;75;21709;-61
2021/12/01 04:05:49;;;;;;;7.65;3.83;;;;;;;4.96;74.92;100368.08;1874402;76;21611;-59
2021/12/01 04:08:18;;;;;;;10.13;4.17;;;;;;;4.92;74.37;100374.23;1876497;75;21024;-60
2021/12/01 04:10:47;;;;;;;8.50;3.52;;;;;;;4.94;74.61;100375.51;1874151;76;21113;-60
2021/12/01 04:13:16;;;;;;;9.75;3.95;;;;;;;4.96;74.37;100385.04;1901122;75;21533;-58
2021/12/01 04:15:45;;;;;;;9.10;4.42;;;;;;;4.98;74.31;100393.69;1906535;75;21063;-59
2021/12/01 04:18:13;;;;;;;8.25;3.95;;;;;;;4.97;74.19;100393.27;1904048;75;21047;-59
2021/12/01 04:20:43;;;;;;;8.38;3.30;;;;;;;4.97;74.06;100397.17;1906399;75;21514;-58
2021/12/01 04:23:12;;;;;;;7.35;3.55;;;;;;;4.95;73.96;100397.66;1906387;75;21531;-61
2021/12/01 04:25:40;;;;;;;6.83;2.60;;;;;;;4.94;73.95;100395.08;1906402;75;21482;-61
2021/12/01 04:28:09;;;;;;;5.17;2.47;;;;;;;4.92;73.69;100400.33;1906119;75;21095;-61
2021/12/01 04:30:38;;;;;;;5.83;2.72;;;;;;;4.92;73.55;100400.33;1906385;75;21450;-60
2021/12/01 04:33:07;;;;;;;5.60;2.75;;;;;;;4.90;73.36;100409.94;1906396;75;21435;-60
2021/12/01 04:35:36;;;;;;;5.22;2.47;;;;;;;4.83;73.29;100415.75;1906435;75;21196;-61
2021/12/01 04:38:06;;;;;;;5.60;2.45;;;;;;;4.76;73.00;100415.91;1885364;75;21043;-62
2021/12/01 04:40:36;;;;;;;6.62;2.95;;;;;;;4.72;72.75;100422.05;1874198;76;21543;-61
2021/12/01 04:43:05;;;;;;;7.20;2.98;;;;;;;4.67;72.33;100418.25;1874206;76;21008;-61
2021/12/01 04:45:36;;;;;;;9.18;2.37;;;;;;;4.66;72.10;100422.19;1874329;76;21105;-61
2021/12/01 04:48:04;;;;;;;8.80;2.85;;;;;;;4.66;71.89;100431.31;1876596;75;21093;-62
2021/12/01 04:50:33;;;;;;;6.33;2.75;;;;;;;4.63;71.94;100433.09;1874089;75;21046;-62
2021/12/01 04:53:02;;;;;;;6.50;2.92;;;;;;;4.65;71.76;100438.28;1874143;76;21540;-62
2021/12/01 04:55:31;;;;;;;10.78;2.75;;;;;;;4.64;71.89;100441.31;1874156;76;21129;-61
2021/12/01 04:58:00;;;;;;;5.65;2.62;;;;;;;4.64;71.82;100445.68;1876322;75;21099;-59
2021/12/01 05:00:33;;;;;;;4.58;2.40;;;;;;;4.60;71.72;100460.52;1874205;76;21466;-60
2021/12/01 05:02:59;;;;;;;4.05;2.30;;;;;;;4.55;71.42;100469.33;1874773;75;21087;-60
2021/12/01 05:05:29;;;;;;;4.12;2.35;;;;;;;4.50;71.69;100478.55;1895495;76;21042;-59
2021/12/01 05:07:58;;;;;;;3.70;2.15;;;;;;;4.45;71.43;100489.05;1895411;76;21493;-58
2021/12/01 05:10:27;;;;;;;6.62;2.17;;;;;;;4.41;71.14;100491.75;1926416;74;21453;-59
2021/12/01 05:12:56;;;;;;;5.85;2.33;;;;;;;4.36;71.04;100496.17;1928672;74;21039;-61
2021/12/01 05:15:25;;;;;;;6.97;2.25;;;;;;;4.33;71.08;100512.71;1924086;74;21406;-60
2021/12/01 05:17:54;;;;;;;10.65;2.40;;;;;;;4.28;71.12;100518.89;1895368;76;21413;-60
2021/12/01 05:20:23;;;;;;;5.12;2.20;;;;;;;4.20;71.13;100519.88;1895522;76;21015;-60
2021/12/01 05:22:52;;;;;;;3.45;1.37;;;;;;;4.16;70.86;100528.63;1895559;75;21078;-60
2021/12/01 05:25:21;;;;;;;3.65;2.20;;;;;;;4.14;70.85;100538.67;1895368;76;21133;-60
2021/12/01 05:27:50;;;;;;;5.17;2.58;;;;;;;4.12;70.93;100544.36;1897402;74;21102;-58
2021/12/01 05:30:20;;;;;;;3.90;2.70;;;;;;;4.10;70.75;100541.77;1895354;76;21474;-58
2021/12/01 05:32:49;;;;;;;5.87;2.65;;;;;;;4.09;70.43;100533.97;1895461;74;21030;-60
2021/12/01 05:35:18;;;;;;;4.70;1.85;;;;;;;4.06;70.34;100541.41;1895433;76;21080;-61
2021/12/01 05:37:47;;;;;;;5.00;2.05;;;;;;;4.06;70.32;100547.92;1897698;74;21047;-60
2021/12/01 05:40:15;;;;;;;3.05;1.57;;;;;;;4.06;70.16;100551.83;1895771;76;21425;-60
2021/12/01 05:42:44;;;;;;;4.78;2.20;;;;;;;4.07;70.15;100553.53;1895401;76;21120;-61
2021/12/01 05:45:13;;;;;;;9.78;4.30;;;;;;;4.08;68.72;100553.97;1895481;76;21039;-61
2021/12/01 05:47:42;;;;;;;4.30;1.85;;;;;;;4.14;68.73;100555.16;1908065;74;21105;-60
2021/12/01 05:50:11;;;;;;;4.72;2.08;;;;;;;4.21;68.81;100556.80;1928800;74;21550;-60
2021/12/01 05:52:40;;;;;;;3.98;1.62;;;;;;;4.32;68.83;100568.36;1928750;74;21176;-60
2021/12/01 05:55:10;;;;;;;6.45;1.75;;;;;;;4.92;68.76;100563.39;1928681;73;21051;-61
2021/12/01 05:57:39;;;;;;;3.67;1.32;;;;;;;6.21;67.46;100562.91;1926536;74;21062;-61
2021/12/01 06:00:11;;;;;;;2.60;1.62;;;;;;;7.62;66.06;100556.98;1928765;74;21083;-61
2021/12/01 06:02:43;;;;;;;3.55;1.75;;;;;;;8.85;64.57;100550.41;1928798;73;21172;-61
2021/12/01 06:05:11;;;;;;;3.45;1.30;;;;;;;9.97;63.05;100540.14;1914308;74;21107;-61
2021/12/01 06:07:40;;;;;;;3.98;1.60;;;;;;;10.94;61.89;100536.16;1906419;75;21075;-61
2021/12/01 06:10:09;;;;;;;4.75;2.02;;;;;;;11.55;60.41;100526.78;1904238;75;20999;-61
2021/12/01 06:12:44;;;;;;;3.00;1.50;;;;;;;11.99;58.36;100523.02;1906524;75;21059;-61
2021/12/01 06:15:11;;;;;;;5.20;2.30;;;;;;;12.64;57.71;100527.73;1905151;74;21113;-61
2021/12/01 06:17:40;;;;;;;3.92;1.50;;;;;;;12.74;57.02;100527.63;1906570;75;21028;-60
2021/12/01 06:20:11;;;;;;;7.95;1.65;;;;;;;13.09;56.08;100512.56;1904117;75;21082;-63
2021/12/01 06:22:42;;;;;;;3.80;1.55;;;;;;;13.52;53.27;100524.00;1906445;75;21067;-61
2021/12/01 06:25:11;;;;;;;5.72;1.87;;;;;;;13.83;52.31;100527.12;1906463;75;21059;-61
2021/12/01 06:34:37;;;;;;;4.83;2.65;;;;;;;15.03;48.94;100528.55;1886792;75;21108;-62
2021/12/01 06:37:06;;;;;;;5.78;2.30;;;;;;;15.14;46.33;100519.95;1886442;75;21516;-61
2021/12/01 06:39:35;;;;;;;3.62;1.60;;;;;;;15.22;44.64;100528.30;1886332;75;21104;-61
2021/12/01 06:42:05;;;;;;;8.10;2.40;;;;;;;15.53;44.05;100527.69;1883978;75;21028;-61
2021/12/01 06:44:34;;;;;;;5.62;2.00;;;;;;;15.56;43.67;100532.33;1874334;76;21032;-61
2021/12/01 06:47:03;;;;;;;6.90;2.22;;;;;;;15.76;42.43;100531.58;1874341;76;21032;-61
2021/12/01 06:49:32;;;;;;;3.80;1.47;;;;;;;15.77;40.43;100531.97;1884043;75;21008;-61
2021/12/01 06:52:01;;;;;;;4.42;1.40;;;;;;;15.93;40.56;100533.14;1906555;75;21141;-61
2021/12/01 06:54:30;;;;;;;2.98;1.65;;;;;;;16.29;40.63;100532.55;1906648;75;21024;-61
2021/12/01 06:56:58;;;;;;;7.00;1.90;;;;;;;16.21;37.42;100536.17;1890898;75;21154;-63
2021/12/01 06:59:27;;;;;;;2.35;1.40;;;;;;;16.04;38.11;100538.61;1874474;76;21157;-62
2021/12/01 07:01:56;;;;;;;2.45;1.42;;;;;;;16.07;36.88;100538.41;1874116;76;21106;-62
2021/12/01 07:04:25;;;;;;;3.37;1.50;;;;;;;15.86;35.68;100533.16;1875437;75;21536;-62
2021/12/01 07:06:53;;;;;;;3.65;1.70;;;;;;;15.90;35.77;100546.16;1897619;74;21043;-60
2021/12/01 07:09:24;;;;;;;4.65;1.67;;;;;;;15.76;33.45;100535.08;1895452;76;21051;-60
2021/12/01 07:11:53;;;;;;;6.72;2.27;;;;;;;15.70;33.36;100541.23;1895491;76;21113;-60
2021/12/01 07:14:22;;;;;;;2.52;1.77;;;;;;;15.81;33.65;100533.47;1895336;76;21485;-61
2021/12/01 07:16:51;;;;;;;1.42;1.32;;;;;;;16.08;32.90;100533.46;1895454;76;21480;-60
2021/12/01 07:19:20;;;;;;;3.27;1.20;;;;;;;16.48;32.92;100530.83;1897879;74;21667;-61
2021/12/01 07:21:48;;;;;;;5.67;1.80;;;;;;;16.86;30.67;100524.77;1895417;76;21489;-60
2021/12/01 07:24:20;;;;;;;3.70;1.20;;;;;;;17.24;31.66;100531.86;1895448;76;21206;-61
2021/12/01 07:26:48;;;;;;;3.55;1.90;;;;;;;17.53;30.55;100526.30;1895390;76;21182;-62
2021/12/01 07:29:18;;;;;;;5.55;1.50;;;;;;;17.62;30.84;100530.96;1896901;74;21453;-61
2021/12/01 07:31:48;;;;;;;4.72;1.85;;;;;;;17.74;30.49;100524.76;1895434;74;21125;-60
2021/12/01 07:34:17;;;;;;;4.62;1.60;;;;;;;18.26;30.44;100525.42;1895469;76;21034;-61
2021/12/01 07:36:46;;;;;;;3.60;1.22;;;;;;;18.57;30.11;100523.58;1895533;76;21123;-61
2021/12/01 07:39:14;;;;;;;2.42;1.30;;;;;;;18.76;30.33;100528.34;1895438;75;21481;-61
2021/12/01 07:41:43;;;;;;;3.55;1.62;;;;;;;18.78;26.98;100536.62;1922534;74;21058;-60
2021/12/01 07:44:12;;;;;;;3.67;1.17;;;;;;;18.45;28.23;100534.70;1928956;74;21039;-60
2021/12/01 07:46:42;;;;;;;2.70;1.40;;;;;;;18.56;28.22;100536.56;1928713;74;21063;-59
2021/12/01 07:49:11;;;;;;;5.05;1.67;;;;;;;18.49;28.17;100534.34;1928692;74;21142;-60
2021/12/01 07:51:40;;;;;;;6.87;1.62;;;;;;;18.90;28.31;100530.84;1906947;74;21050;-60
2021/12/01 07:54:08;;;;;;;4.03;1.75;;;;;;;18.81;27.15;100536.42;1895319;76;21501;-59
2021/12/01 07:56:37;;;;;;;2.55;1.20;;;;;;;18.45;28.78;100528.88;1895446;76;21051;-59
2021/12/01 07:59:06;;;;;;;1.62;1.22;;;;;;;18.71;28.06;100524.72;1895436;76;21466;-59
2021/12/01 08:01:35;;;;;;;2.27;1.15;;;;;;;18.74;27.71;100523.62;1895639;75;21038;-59
2021/12/01 08:04:04;;;;;;;4.92;1.20;;;;;;;19.06;27.93;100530.52;1895445;76;21156;-59
2021/12/01 08:06:33;;;;;;;3.72;1.60;;;;;;;19.33;27.98;100523.95;1918732;74;21070;-59
2021/12/01 08:09:03;;;;;;;1.87;1.52;;;;;;;19.56;27.93;100520.30;1928713;74;21473;-60
2021/12/01 08:11:32;;;;;;;4.37;1.40;;;;;;;19.48;25.82;100516.92;1928723;74;21023;-59
2021/12/01 08:14:01;;;;;;;3.22;1.20;;;;;;;19.22;26.70;100504.32;1928711;74;21509;-60
2021/12/01 08:16:30;;;;;;;3.42;1.27;;;;;;;19.28;26.66;100503.82;1910581;74;21437;-59
2021/12/01 08:18:59;;;;;;;2.70;1.20;;;;;;;19.28;26.14;100504.31;1895396;76;21039;-59
2021/12/01 08:21:28;;;;;;;3.33;1.37;;;;;;;19.16;26.19;100500.78;1895459;75;21116;-59
2021/12/01 08:23:57;;;;;;;5.17;1.40;;;;;;;19.36;26.09;100503.70;1895441;76;21476;-60
2021/12/01 08:26:25;;;;;;;4.12;1.45;;;;;;;19.02;25.49;100479.70;1895463;76;21051;-60
2021/12/01 08:28:54;;;;;;;1.62;1.20;;;;;;;19.11;26.02;100472.30;1895451;76;21550;-59
2021/12/01 08:31:23;;;;;;;3.40;1.60;;;;;;;19.46;26.02;100481.98;1909014;74;21047;-62
2021/12/01 08:33:53;;;;;;;11.28;3.87;;;;;;;19.14;25.25;100477.37;1901601;74;21191;-61
2021/12/01 08:36:21;;;;;;;6.47;2.50;;;;;;;19.59;25.88;100461.31;1900855;74;21566;-60
2021/12/01 08:38:50;;;;;;;4.75;1.47;;;;;;;20.21;25.74;100455.80;1928704;74;21105;-61
2021/12/01 08:41:19;;;;;;;5.15;1.80;;;;;;;20.97;25.75;100458.71;1928712;74;21097;-61
2021/12/01 08:43:49;;;;;;;7.33;1.80;;;;;;;20.78;23.62;100450.95;1928693;74;21118;-60
2021/12/01 08:46:18;;;;;;;7.25;2.35;;;;;;;20.06;24.23;100453.05;1928616;74;21201;-61
2021/12/01 08:48:47;;;;;;;3.52;1.72;;;;;;;19.90;24.41;100447.28;1919828;74;21108;-60
2021/12/01 08:51:16;;;;;;;2.17;1.60;;;;;;;19.61;23.82;100444.67;1895463;75;21047;-57
2021/12/01 08:53:45;;;;;;;4.53;1.47;;;;;;;19.49;24.79;100443.00;1895395;76;21473;-60
2021/12/01 08:56:13;;;;;;;2.35;1.35;;;;;;;19.96;24.80;100451.64;1895371;76;21051;-59
2021/12/01 08:58:42;;;;;;;2.30;1.37;;;;;;;20.18;24.66;100445.84;1895316;76;21105;-59
2021/12/01 09:01:11;;;;;;;2.62;1.45;;;;;;;20.06;24.37;100427.66;1895420;76;21481;-59
2021/12/01 09:03:40;;;;;;;3.70;1.85;;;;;;;19.91;24.09;100437.81;1895376;76;21473;-60
2021/12/01 09:06:09;;;;;;;4.03;1.67;;;;;;;19.10;24.46;100434.06;1895268;75;21582;-60
2021/12/01 09:08:39;;;;;;;4.17;2.17;;;;;;;19.80;25.18;100435.18;1895399;76;21063;-60
2021/12/01 09:11:08;;;;;;;2.65;1.57;;;;;;;20.11;24.26;100428.13;1895292;76;21113;-60
2021/12/01 09:13:37;;;;;;;3.02;1.70;;;;;;;20.22;24.23;100431.23;1895505;76;21005;-61
2021/12/01 09:16:06;;;;;;;5.55;1.60;;;;;;;20.13;24.16;100423.99;1895503;76;21470;-61
2021/12/01 09:18:37;;;;;;;5.45;1.15;;;;;;;19.26;25.00;100423.52;1895519;76;21461;-60
2021/12/01 09:21:06;;;;;;;3.77;1.42;;;;;;;18.32;26.54;100425.50;1895620;76;21108;-60
2021/12/01 09:23:35;;;;;;;7.35;2.15;;;;;;;16.99;28.20;100422.37;1894917;76;21156;-62
2021/12/01 09:26:04;;;;;;;4.55;1.30;;;;;;;15.98;29.31;100411.55;1914590;74;21085;-58
2021/12/01 09:28:33;;;;;;;1.98;1.22;;;;;;;15.40;30.31;100411.75;1928889;74;21529;-58
2021/12/01 09:31:01;;;;;;;2.33;1.35;;;;;;;15.08;30.62;100407.16;1922547;74;21041;-57
2021/12/01 09:33:31;;;;;;;4.03;1.30;;;;;;;14.04;31.67;100407.72;1898608;74;21054;-58
2021/12/01 09:36:00;;;;;;;3.87;1.77;;;;;;;13.41;32.87;100400.73;1923343;74;21525;-59
2021/12/01 09:38:29;;;;;;;2.75;1.60;;;;;;;12.92;34.04;100398.98;1928660;74;21137;-59
2021/12/01 09:40:58;;;;;;;3.37;1.25;;;;;;;12.72;34.14;100398.25;1922733;74;21033;-64
2021/12/01 09:43:31;;;;;;;2.65;1.22;;;;;;;12.46;34.33;100393.52;1895637;76;21462;-62
2021/12/01 09:46:04;;;;;;;4.00;2.00;;;;;;;12.53;34.49;100386.50;1895970;74;21084;-62
2021/12/01 09:48:53;;;;;;;1.63;1.10;;;;;;;12.01;35.32;100381.73;1895859;76;21559;-63
2021/12/01 09:51:22;;;;;;;3.37;1.72;;;;;;;12.58;35.65;100381.44;1874852;75;21571;-62
2021/12/01 09:53:52;;;;;;;5.58;1.70;;;;;;;14.91;32.29;100356.53;1871898;75;21634;-64
2021/12/01 09:56:24;;;;;;;1.20;0.78;;;;;;;16.44;30.40;100357.09;1858511;75;20994;-62
2021/12/01 09:59:11;;;;;;;4.42;1.60;;;;;;;17.20;28.96;100345.48;1844720;76;21654;-61
2021/12/01 10:01:40;;;;;;;1.80;1.40;;;;;;;17.43;28.75;100346.92;1886129;76;21119;-62
2021/12/01 10:04:09;;;;;;;2.95;1.37;;;;;;;17.68;28.49;100355.27;1885054;75;21180;-65
2021/12/01 10:06:38;;;;;;;1.95;1.57;;;;;;;17.05;28.71;100333.30;1863468;75;21477;-64
2021/12/01 10:09:09;;;;;;;2.65;1.40;;;;;;;16.69;29.65;100349.56;1864129;76;21087;-66
2021/12/01 10:11:41;;;;;;;1.85;1.05;;;;;;;15.15;31.33;100341.34;1890070;74;21053;-61
2021/12/01 10:14:18;;;;;;;2.83;1.60;;;;;;;13.77;33.26;100351.48;1870903;75;21043;-60
2021/12/01 10:16:49;;;;;;;1.37;1.00;;;;;;;13.09;34.52;100340.75;1884679;75;21119;-60
2021/12/01 10:19:18;;;;;;;2.05;1.02;;;;;;;12.29;36.10;100336.32;1851779;75;21477;-60
2021/12/01 10:21:50;;;;;;;6.47;1.37;;;;;;;11.47;37.73;100341.75;1856572;76;21138;-61
2021/12/01 10:24:28;;;;;;;4.00;1.47;;;;;;;11.05;38.83;100349.47;1853088;76;21161;-60
2021/12/01 10:27:03;;;;;;;1.82;0.90;;;;;;;10.77;39.71;100350.75;1847408;76;21080;-59
2021/12/01 10:29:37;;;;;;;3.45;1.30;;;;;;;10.52;40.49;100344.42;1878445;76;21417;-61
2021/12/01 10:32:11;;;;;;;2.65;1.40;;;;;;;10.38;41.17;100337.16;1878051;74;21531;-59
2021/12/01 10:34:46;;;;;;;4.25;1.17;;;;;;;10.34;41.46;100338.20;1873235;76;21054;-58
2021/12/01 10:37:25;;;;;;;1.77;1.40;;;;;;;10.26;41.88;100329.77;1905928;75;21082;-61
2021/12/01 10:40:12;;;;;;;2.20;1.00;;;;;;;10.16;42.64;100329.77;1919120;75;21070;-60
2021/12/01 10:43:02;;;;;;;3.77;1.12;;;;;;;10.25;42.47;100318.84;1919118;75;21130;-61
2021/12/01 10:45:34;;;;;;;3.55;1.22;;;;;;;10.10;43.12;100320.38;1919139;75;21034;-62
2021/12/01 10:48:05;;;;;;;5.05;1.52;;;;;;;10.04;43.56;100305.71;1854583;77;21495;-59
2021/12/01 10:50:36;;;;;;;1.70;0.88;;;;;;;10.20;43.66;100302.42;1855382;75;21049;-60
2021/12/01 10:53:08;;;;;;;4.00;1.30;;;;;;;10.31;43.85;100296.69;1919204;75;21567;-60
2021/12/01 10:55:45;;;;;;;1.67;1.10;;;;;;;10.31;44.11;100271.25;1917265;74;21174;-61
2021/12/01 10:58:15;;;;;;;3.22;1.42;;;;;;;10.17;44.49;100309.97;1857838;77;21101;-56
2021/12/01 11:00:49;;;;;;;2.80;1.50;;;;;;;10.05;45.76;100302.17;1862605;75;21076;-58
2021/12/01 11:03:21;;;;;;;1.72;0.95;;;;;;;9.88;46.10;100305.98;1916263;75;21039;-58
2021/12/01 11:05:54;;;;;;;4.87;0.90;;;;;;;10.11;46.22;100291.00;1912547;75;21125;-58
2021/12/01 11:08:32;;;;;;;3.67;1.17;;;;;;;11.51;43.93;100283.97;1893742;75;21004;-60
2021/12/01 11:11:12;;;;;;;7.00;1.80;;;;;;;11.78;43.48;100287.00;1910205;75;21016;-57
2021/12/01 11:13:46;;;;;;;2.10;1.35;;;;;;;11.58;44.26;100218.13;1869486;75;21482;-58
2021/12/01 11:16:20;;;;;;;1.98;1.20;;;;;;;12.27;43.14;100279.64;1891862;75;21477;-58
2021/12/01 11:18:52;;;;;;;3.17;1.42;;;;;;;12.07;43.39;100271.93;1855224;77;21140;-57
2021/12/01 11:21:25;;;;;;;2.55;1.30;;;;;;;12.24;43.04;100279.80;1872236;75;21032;-58
2021/12/01 11:24:03;;;;;;;4.03;1.40;;;;;;;11.48;44.67;100272.25;1918063;74;21012;-66
2021/12/01 11:26:31;;;;;;;6.80;1.17;;;;;;;12.13;43.95;100262.36;1875739;75;21107;-64
2021/12/01 11:29:03;;;;;;;1.42;1.10;;;;;;;11.89;44.56;100264.00;1867591;75;21022;-65
2021/12/01 11:31:35;;;;;;;2.85;1.05;;;;;;;11.92;44.82;100255.97;1869543;75;21053;-62
2021/12/01 11:34:07;;;;;;;2.90;1.12;;;;;;;12.10;44.34;100251.98;1859813;75;21071;-62
2021/12/01 11:36:38;;;;;;;3.85;1.27;;;;;;;12.14;43.88;100225.81;1877942;75;21564;-63
2021/12/01 11:39:13;;;;;;;8.38;1.62;;;;;;;11.85;44.53;100254.55;1872470;76;21054;-60
2021/12/01 11:41:43;;;;;;;1.95;1.07;;;;;;;11.32;46.21;100260.29;1876485;76;21032;-57
2021/12/01 11:44:14;;;;;;;1.52;0.72;;;;;;;10.68;47.77;100266.05;1910402;75;21074;-61
2021/12/01 11:46:43;;;;;;;1.22;1.00;;;;;;;10.16;49.18;100260.05;1872574;76;21033;-59
2021/12/01 11:49:14;;;;;;;2.70;1.10;;;;;;;9.75;50.12;100261.42;1873283;76;21460;-58
2021/12/01 11:51:55;;;;;;;2.35;1.20;;;;;;;9.56;50.72;100273.19;1855803;75;21113;-60
2021/12/01 11:54:26;;;;;;;1.12;0.80;;;;;;;9.35;52.00;100264.42;1841906;78;21046;-59
2021/12/01 11:57:00;;;;;;;2.42;1.02;;;;;;;9.21;52.60;100264.53;1841850;78;21096;-64
2021/12/01 11:59:31;;;;;;;2.50;0.93;;;;;;;9.14;52.98;100255.66;1843468;77;21089;-61
2021/12/01 12:02:18;;;;;;;2.45;1.35;;;;;;;9.09;53.03;100250.58;1830235;78;21105;-61
2021/12/01 12:04:52;;;;;;;2.83;1.47;;;;;;;9.04;53.38;100242.05;1807260;79;21094;-57
2021/12/01 12:07:30;;;;;;;5.80;1.60;;;;;;;8.98;53.84;100263.29;1814431;78;21034;-60
2021/12/01 12:10:16;;;;;;;4.55;1.72;;;;;;;8.94;54.25;100259.08;1832273;77;21049;-61
2021/12/01 12:13:07;;;;;;;7.08;1.27;;;;;;;8.85;54.43;100263.80;1834899;78;21050;-60
2021/12/01 12:15:53;;;;;;;3.42;1.10;;;;;;;8.78;55.17;100261.45;1841184;78;21097;-59
2021/12/01 12:18:48;;;;;;;1.95;1.20;;;;;;;8.71;56.34;100254.30;1843586;77;21099;-60
2021/12/01 12:21:16;;;;;;;3.27;1.37;;;;;;;8.64;56.88;100275.97;1837937;78;21191;-60
2021/12/01 12:23:47;;;;;;;1.72;1.10;;;;;;;8.45;59.99;100262.70;1807252;79;21505;-58
2021/12/01 12:26:19;;;;;;;2.10;1.15;;;;;;;8.06;62.09;100299.08;1816271;78;21085;-58
2021/12/01 12:28:49;;;;;;;2.50;0.80;;;;;;;7.66;62.82;100279.06;1805746;79;21137;-61
2021/12/01 12:31:24;;;;;;;3.50;1.00;;;;;;;7.43;63.41;100277.66;1813360;78;21069;-61
2021/12/01 12:33:57;;;;;;;1.90;1.10;;;;;;;7.27;65.01;100286.04;1842697;78;21140;-61
2021/12/01 12:36:45;;;;;;;7.28;1.57;;;;;;;7.10;66.27;100288.33;1842778;78;21089;-59
2021/12/01 12:39:21;;;;;;;2.47;1.00;;;;;;;6.91;69.01;100282.36;1842740;78;21061;-59